createdAt,value
2019-04-23T00:00:10.275Z,0.00
2019-04-23T00:00:56.239Z,0.00
2019-04-23T00:01:55.570Z,0.00
2019-04-23T00:02:53.535Z,0.00
2019-04-23T00:03:53.422Z,0.00
2019-04-23T00:04:50.939Z,0.00
2019-04-23T00:05:59.923Z,0.00
2019-04-23T00:06:59.238Z,0.00
2019-04-23T00:07:58.269Z,0.00
2019-04-23T00:08:59.246Z,0.00
2019-04-23T00:10:01.290Z,0.00
2019-04-23T00:10:59.058Z,0.00
2019-04-23T00:11:54.374Z,0.00
2019-04-23T00:13:16.916Z,0.00
2019-04-23T00:14:02.824Z,0.00
2019-04-23T00:15:04.590Z,0.00
2019-04-23T00:15:58.708Z,0.00
2019-04-23T00:16:50.951Z,0.00
2019-04-23T00:17:50.248Z,0.00
2019-04-23T00:18:46.492Z,0.00
2019-04-23T00:20:00.954Z,0.00
2019-04-23T00:20:54.954Z,0.00
2019-04-23T00:21:55.035Z,0.00
2019-04-23T00:22:51.748Z,0.00
2019-04-23T00:23:57.101Z,0.00
2019-04-23T00:25:54.133Z,0.00
2019-04-23T00:26:51.153Z,0.00
2019-04-23T00:27:50.369Z,0.00
2019-04-23T00:29:56.473Z,0.00
2019-04-23T00:30:58.241Z,0.00
2019-04-23T00:31:56.187Z,0.00
2019-04-23T00:32:46.210Z,0.00
2019-04-23T00:33:52.709Z,0.00
2019-04-23T00:36:07.010Z,0.00
2019-04-23T00:36:58.547Z,0.00
2019-04-23T00:37:47.373Z,0.00
2019-04-23T00:38:54.267Z,0.00
2019-04-23T00:41:02.906Z,0.00
2019-04-23T00:41:50.862Z,0.00
2019-04-23T00:42:47.804Z,0.00
2019-04-23T00:43:50.972Z,0.00
2019-04-23T00:45:07.155Z,0.00
2019-04-23T00:46:49.971Z,0.00
2019-04-23T00:48:53.139Z,0.00
2019-04-23T00:49:51.169Z,0.00
2019-04-23T00:50:52.842Z,0.00
2019-04-23T00:52:04.221Z,0.00
2019-04-23T00:52:45.757Z,0.00
2019-04-23T00:53:43.947Z,0.00
2019-04-23T00:54:49.388Z,0.00
2019-04-23T00:55:47.687Z,0.00
2019-04-23T00:56:44.690Z,0.00
2019-04-23T00:57:48.485Z,0.00
2019-04-23T00:58:47.741Z,0.00
2019-04-23T00:59:53.769Z,0.00
2019-04-23T01:00:48.935Z,0.00
2019-04-23T01:01:52.855Z,0.00
2019-04-23T01:02:49.237Z,0.00
2019-04-23T01:03:45.377Z,0.00
2019-04-23T01:04:48.076Z,0.00
2019-04-23T01:05:58.877Z,0.00
2019-04-23T01:06:49.630Z,0.00
2019-04-23T01:07:45.867Z,0.00
2019-04-23T01:08:47.677Z,0.00
2019-04-23T01:09:45.876Z,0.00
2019-04-23T01:10:50.828Z,0.00
2019-04-23T01:11:46.707Z,0.00
2019-04-23T01:12:45.906Z,0.00
2019-04-23T01:13:49.203Z,0.00
2019-04-23T01:14:46.217Z,0.00
2019-04-23T01:15:45.913Z,0.00
2019-04-23T01:17:02.747Z,0.00
2019-04-23T01:18:53.275Z,0.00
2019-04-23T01:19:43.833Z,0.00
2019-04-23T01:20:44.544Z,0.00
2019-04-23T01:21:22.397Z,0.00
2019-04-23T01:22:21.591Z,0.00
2019-04-23T01:23:31.145Z,0.00
2019-04-23T01:24:25.999Z,0.00
2019-04-23T01:25:34.159Z,0.00
2019-04-23T01:26:42.105Z,0.00
2019-04-23T01:28:54.227Z,0.00
2019-04-23T01:29:50.647Z,0.00
2019-04-23T01:30:46.904Z,0.00
2019-04-23T01:31:47.548Z,0.00
2019-04-23T01:32:41.113Z,0.00
2019-04-23T01:33:51.748Z,0.00
2019-04-23T01:34:51.360Z,0.00
2019-04-23T01:35:55.198Z,0.00
2019-04-23T01:36:41.476Z,0.00
2019-04-23T01:37:46.720Z,0.00
2019-04-23T01:38:48.094Z,0.00
2019-04-23T01:39:44.136Z,0.00
2019-04-23T01:40:40.696Z,0.00
2019-04-23T01:41:50.797Z,0.00
2019-04-23T01:44:50.676Z,0.00
2019-04-23T01:45:43.446Z,0.00
2019-04-23T01:46:51.078Z,0.00
2019-04-23T01:47:47.178Z,0.00
2019-04-23T01:48:47.089Z,0.00
2019-04-23T01:49:53.691Z,0.00
2019-04-23T01:50:48.640Z,0.00
2019-04-23T01:51:46.672Z,0.00
2019-04-23T01:53:02.405Z,0.00
2019-04-23T01:53:45.768Z,0.00
2019-04-23T01:54:50.019Z,0.00
2019-04-23T01:56:45.835Z,0.00
2019-04-23T01:57:46.603Z,0.00
2019-04-23T01:58:59.243Z,0.00
2019-04-23T01:59:46.206Z,0.00
2019-04-23T02:00:40.761Z,0.00
2019-04-23T02:01:46.156Z,0.00
2019-04-23T02:02:51.041Z,0.00
2019-04-23T02:03:43.741Z,0.00
2019-04-23T02:04:44.562Z,0.00
2019-04-23T02:05:43.281Z,0.00
2019-04-23T02:06:39.178Z,0.00
2019-04-23T02:07:50.946Z,0.00
2019-04-23T02:08:42.026Z,0.00
2019-04-23T02:09:48.380Z,0.00
2019-04-23T02:10:58.211Z,0.00
2019-04-23T02:11:38.468Z,0.00
2019-04-23T02:12:47.675Z,0.00
2019-04-23T02:13:42.042Z,0.00
2019-04-23T02:14:41.611Z,0.00
2019-04-23T02:15:42.498Z,0.00
2019-04-23T02:17:50.012Z,0.00
2019-04-23T02:18:40.497Z,0.00
2019-04-23T02:19:45.816Z,0.00
2019-04-23T02:20:42.944Z,0.00
2019-04-23T02:21:35.278Z,0.00
2019-04-23T02:22:50.203Z,0.00
2019-04-23T02:24:41.406Z,0.00
2019-04-23T02:25:44.345Z,0.00
2019-04-23T02:26:39.897Z,0.00
2019-04-23T02:27:46.978Z,0.00
2019-04-23T02:28:46.381Z,0.00
2019-04-23T02:29:59.267Z,0.00
2019-04-23T02:31:03.822Z,0.00
2019-04-23T02:32:46.034Z,0.00
2019-04-23T02:34:51.258Z,0.00
2019-04-23T02:36:46.795Z,0.00
2019-04-23T02:37:53.755Z,0.00
2019-04-23T02:38:52.294Z,0.00
2019-04-23T02:39:51.956Z,0.00
2019-04-23T02:40:59.367Z,0.00
2019-04-23T02:42:07.342Z,0.00
2019-04-23T02:43:35.546Z,0.00
2019-04-23T02:44:39.339Z,0.00
2019-04-23T02:45:48.890Z,0.00
2019-04-23T02:46:40.974Z,0.00
2019-04-23T02:47:53.054Z,0.00
2019-04-23T02:48:44.237Z,0.00
2019-04-23T02:49:45.994Z,0.00
2019-04-23T02:50:54.154Z,0.00
2019-04-23T02:51:43.857Z,0.00
2019-04-23T02:52:49.787Z,0.00
2019-04-23T02:56:48.166Z,0.00
2019-04-23T02:58:43.797Z,0.00
2019-04-23T02:59:56.026Z,0.00
2019-04-23T03:00:55.776Z,0.00
2019-04-23T03:02:58.284Z,0.00
2019-04-23T03:04:40.063Z,0.00
2019-04-23T03:05:45.507Z,0.00
2019-04-23T03:06:47.704Z,0.00
2019-04-23T03:07:45.456Z,0.00
2019-04-23T03:08:49.271Z,0.00
2019-04-23T03:10:40.398Z,0.00
2019-04-23T03:11:41.650Z,0.00
2019-04-23T03:14:41.713Z,0.00
2019-04-23T03:15:57.908Z,0.00
2019-04-23T03:16:49.933Z,0.00
2019-04-23T03:17:51.883Z,0.00
2019-04-23T03:19:37.775Z,0.00
2019-04-23T03:21:07.475Z,0.00
2019-04-23T03:21:47.342Z,0.00
2019-04-23T03:22:46.008Z,0.00
2019-04-23T03:25:03.673Z,0.00
2019-04-23T03:25:34.016Z,0.00
2019-04-23T03:26:47.689Z,0.00
2019-04-23T03:31:21.137Z,0.00
2019-04-23T03:33:08.570Z,0.00
2019-04-23T03:34:04.154Z,0.00
2019-04-23T03:37:08.687Z,0.00
2019-04-23T03:38:48.855Z,0.00
2019-04-23T03:39:51.257Z,0.00
2019-04-23T03:41:02.403Z,0.00
2019-04-23T03:41:43.914Z,0.00
2019-04-23T03:42:47.094Z,0.00
2019-04-23T03:43:37.472Z,0.00
2019-04-23T03:44:40.088Z,0.00
2019-04-23T03:47:48.918Z,0.00
2019-04-23T03:48:42.124Z,0.00
2019-04-23T03:49:43.895Z,0.00
2019-04-23T03:51:38.270Z,0.00
2019-04-23T03:53:45.110Z,0.00
2019-04-23T03:56:44.546Z,0.00
2019-04-23T03:57:45.183Z,0.00
2019-04-23T03:58:39.485Z,0.00
2019-04-23T04:00:37.238Z,0.00
2019-04-23T04:02:50.471Z,0.00
2019-04-23T04:04:35.010Z,0.00
2019-04-23T04:05:42.524Z,0.00
2019-04-23T04:08:26.185Z,0.00
2019-04-23T04:09:38.556Z,0.00
2019-04-23T04:10:36.026Z,0.00
2019-04-23T04:11:25.566Z,0.00
2019-04-23T04:13:48.078Z,0.00
2019-04-23T04:16:34.306Z,0.00
2019-04-23T04:17:26.747Z,0.00
2019-04-23T04:18:38.593Z,0.00
2019-04-23T04:20:44.164Z,0.00
2019-04-23T04:22:44.061Z,0.00
2019-04-23T04:23:33.903Z,0.00
2019-04-23T04:24:37.828Z,0.00
2019-04-23T04:25:37.076Z,0.00
2019-04-23T04:26:44.341Z,0.00
2019-04-23T04:27:35.744Z,0.00
2019-04-23T04:29:44.420Z,0.00
2019-04-23T04:32:33.589Z,5.63
2019-04-23T04:33:36.892Z,5.63
2019-04-23T04:35:38.498Z,5.63
2019-04-23T04:39:33.494Z,5.63
2019-04-23T04:40:47.800Z,5.63
2019-04-23T04:42:27.491Z,5.63
2019-04-23T04:48:40.245Z,11.25
2019-04-23T04:49:36.399Z,11.25
2019-04-23T04:50:26.719Z,11.25
2019-04-23T04:53:58.209Z,16.88
2019-04-23T04:54:23.009Z,16.88
2019-04-23T04:55:28.383Z,16.88
2019-04-23T04:56:31.739Z,16.88
2019-04-23T04:59:23.891Z,16.88
2019-04-23T05:00:39.775Z,22.50
2019-04-23T05:01:25.985Z,22.50
2019-04-23T05:02:52.719Z,22.50
2019-04-23T05:03:23.990Z,22.50
2019-04-23T05:04:30.603Z,22.50
2019-04-23T05:05:55.390Z,22.50
2019-04-23T05:06:40.869Z,28.13
2019-04-23T05:08:28.176Z,28.13
2019-04-23T05:09:38.098Z,28.13
2019-04-23T05:10:32.513Z,28.13
2019-04-23T05:11:28.236Z,33.75
2019-04-23T05:12:25.506Z,33.75
2019-04-23T05:13:41.172Z,33.75
2019-04-23T05:14:43.990Z,33.75
2019-04-23T05:15:16.562Z,33.75
2019-04-23T05:16:24.253Z,33.75
2019-04-23T05:17:27.563Z,33.75
2019-04-23T05:18:23.549Z,33.75
2019-04-23T05:19:29.360Z,39.38
2019-04-23T05:20:21.113Z,39.38
2019-04-23T05:21:26.902Z,39.38
2019-04-23T05:22:22.532Z,39.38
2019-04-23T05:23:33.845Z,39.38
2019-04-23T05:25:17.652Z,45.00
2019-04-23T05:26:22.408Z,45.00
2019-04-23T05:27:21.672Z,45.00
2019-04-23T05:29:34.451Z,50.63
2019-04-23T05:31:20.292Z,56.25
2019-04-23T05:32:12.159Z,56.25
2019-04-23T05:33:18.611Z,56.25
2019-04-23T05:34:14.509Z,56.25
2019-04-23T05:35:26.151Z,61.88
2019-04-23T05:37:28.326Z,61.88
2019-04-23T05:39:26.865Z,67.50
2019-04-23T05:40:25.462Z,67.50
2019-04-23T05:41:29.844Z,67.50
2019-04-23T05:42:19.572Z,67.50
2019-04-23T05:43:32.473Z,67.50
2019-04-23T05:45:15.915Z,73.13
2019-04-23T05:46:21.849Z,73.13
2019-04-23T05:47:23.104Z,78.75
2019-04-23T05:48:17.505Z,78.75
2019-04-23T05:49:33.059Z,84.38
2019-04-23T05:50:17.443Z,90.00
2019-04-23T05:51:38.277Z,90.00
2019-04-23T05:52:37.688Z,95.63
2019-04-23T05:53:13.379Z,101.25
2019-04-23T05:55:16.906Z,106.88
2019-04-23T05:56:13.200Z,101.25
2019-04-23T05:57:09.957Z,95.63
2019-04-23T05:58:16.953Z,95.63
2019-04-23T05:59:17.652Z,95.63
2019-04-23T06:00:15.840Z,95.63
2019-04-23T06:01:32.464Z,95.63
2019-04-23T06:03:16.034Z,95.63
2019-04-23T06:05:19.708Z,101.25
2019-04-23T06:06:26.185Z,101.25
2019-04-23T06:07:22.111Z,101.25
2019-04-23T06:08:11.963Z,106.88
2019-04-23T06:09:14.415Z,106.88
2019-04-23T06:10:15.004Z,101.25
2019-04-23T06:11:11.924Z,101.25
2019-04-23T06:12:12.371Z,101.25
2019-04-23T06:13:12.338Z,101.25
2019-04-23T06:15:13.400Z,106.88
2019-04-23T06:16:16.594Z,112.50
2019-04-23T06:18:17.173Z,123.75
2019-04-23T06:19:14.136Z,129.38
2019-04-23T06:20:10.261Z,129.38
2019-04-23T06:21:10.056Z,129.38
2019-04-23T06:22:18.441Z,129.38
2019-04-23T06:23:20.924Z,123.75
2019-04-23T06:24:16.557Z,118.13
2019-04-23T06:25:21.520Z,118.13
2019-04-23T06:26:24.317Z,118.13
2019-04-23T06:27:13.301Z,118.13
2019-04-23T06:29:16.017Z,123.75
2019-04-23T06:30:08.374Z,129.38
2019-04-23T06:31:12.912Z,135.00
2019-04-23T06:32:06.373Z,146.25
2019-04-23T06:33:16.334Z,151.88
2019-04-23T06:34:14.241Z,146.25
2019-04-23T06:35:08.772Z,140.63
2019-04-23T06:36:28.003Z,129.38
2019-04-23T06:37:09.792Z,129.38
2019-04-23T06:38:32.977Z,129.38
2019-04-23T06:39:00.238Z,129.38
2019-04-23T06:40:08.320Z,135.00
2019-04-23T06:41:13.229Z,140.63
2019-04-23T06:42:05.969Z,146.25
2019-04-23T06:43:06.517Z,151.88
2019-04-23T06:44:14.532Z,157.50
2019-04-23T06:45:19.266Z,163.13
2019-04-23T06:46:04.882Z,168.75
2019-04-23T06:48:09.055Z,157.50
2019-04-23T06:49:09.200Z,151.88
2019-04-23T06:50:29.835Z,151.88
2019-04-23T06:51:12.826Z,157.50
2019-04-23T06:53:00.593Z,168.75
2019-04-23T06:54:04.864Z,168.75
2019-04-23T06:55:25.438Z,174.38
2019-04-23T06:56:13.108Z,168.75
2019-04-23T06:58:13.555Z,157.50
2019-04-23T06:59:07.641Z,151.88
2019-04-23T07:00:11.408Z,146.25
2019-04-23T07:01:04.885Z,140.63
2019-04-23T07:02:14.995Z,140.63
2019-04-23T07:03:09.157Z,146.25
2019-04-23T07:04:05.576Z,157.50
2019-04-23T07:05:14.534Z,174.38
2019-04-23T07:06:16.708Z,191.25
2019-04-23T07:07:31.037Z,208.13
2019-04-23T07:08:02.876Z,225.00
2019-04-23T07:09:57.960Z,213.75
2019-04-23T07:11:10.524Z,202.50
2019-04-23T07:12:05.232Z,191.25
2019-04-23T07:13:04.911Z,185.63
2019-04-23T07:15:11.642Z,185.63
2019-04-23T07:16:08.057Z,185.63
2019-04-23T07:17:04.143Z,174.38
2019-04-23T07:18:04.384Z,168.75
2019-04-23T07:20:00.270Z,157.50
2019-04-23T07:21:09.464Z,157.50
2019-04-23T07:22:08.232Z,157.50
2019-04-23T07:23:10.630Z,163.13
2019-04-23T07:24:08.554Z,163.13
2019-04-23T07:25:00.084Z,163.13
2019-04-23T07:26:08.075Z,168.75
2019-04-23T07:26:55.929Z,168.75
2019-04-23T07:28:07.119Z,180.00
2019-04-23T07:29:16.045Z,180.00
2019-04-23T07:31:07.759Z,191.25
2019-04-23T07:31:59.260Z,202.50
2019-04-23T07:33:04.190Z,219.38
2019-04-23T07:34:02.505Z,236.25
2019-04-23T07:35:13.708Z,253.13
2019-04-23T07:36:03.803Z,275.63
2019-04-23T07:37:03.399Z,292.50
2019-04-23T07:38:05.894Z,292.50
2019-04-23T07:39:14.309Z,275.63
2019-04-23T07:40:20.217Z,253.13
2019-04-23T07:41:12.496Z,241.88
2019-04-23T07:42:20.581Z,241.88
2019-04-23T07:43:03.258Z,247.50
2019-04-23T07:44:04.897Z,253.13
2019-04-23T07:45:06.104Z,264.38
2019-04-23T07:46:08.558Z,270.00
2019-04-23T07:47:11.777Z,264.38
2019-04-23T07:48:06.827Z,264.38
2019-04-23T07:48:56.407Z,264.38
2019-04-23T07:50:11.435Z,264.38
2019-04-23T07:50:52.017Z,253.13
2019-04-23T07:52:03.064Z,247.50
2019-04-23T07:53:07.116Z,253.13
2019-04-23T07:54:01.270Z,264.38
2019-04-23T07:55:02.513Z,275.63
2019-04-23T07:56:03.741Z,286.88
2019-04-23T07:57:02.878Z,292.50
2019-04-23T07:58:06.483Z,292.50
2019-04-23T07:58:58.329Z,298.13
2019-04-23T08:00:00.960Z,303.75
2019-04-23T08:01:09.708Z,303.75
2019-04-23T08:01:56.908Z,303.75
2019-04-23T08:03:08.562Z,309.38
2019-04-23T08:03:56.190Z,326.25
2019-04-23T08:05:58.456Z,298.13
2019-04-23T08:07:03.132Z,286.88
2019-04-23T08:07:55.853Z,281.25
2019-04-23T08:08:56.785Z,281.25
2019-04-23T08:11:21.952Z,275.63
2019-04-23T08:11:56.155Z,264.38
2019-04-23T08:13:04.245Z,264.38
2019-04-23T08:14:59.991Z,275.63
2019-04-23T08:15:57.258Z,292.50
2019-04-23T08:16:56.159Z,309.38
2019-04-23T08:17:58.581Z,315.00
2019-04-23T08:18:54.391Z,315.00
2019-04-23T08:20:57.159Z,315.00
2019-04-23T08:22:57.242Z,320.63
2019-04-23T08:24:02.249Z,326.25
2019-04-23T08:26:04.557Z,337.50
2019-04-23T08:26:55.187Z,348.75
2019-04-23T08:27:57.439Z,348.75
2019-04-23T08:29:03.621Z,343.13
2019-04-23T08:29:47.743Z,343.13
2019-04-23T08:30:56.785Z,348.75
2019-04-23T08:33:02.407Z,371.25
2019-04-23T08:33:56.889Z,371.25
2019-04-23T08:34:58.437Z,376.88
2019-04-23T08:35:57.763Z,371.25
2019-04-23T08:36:58.215Z,365.63
2019-04-23T08:38:07.887Z,371.25
2019-04-23T08:38:50.886Z,382.50
2019-04-23T08:39:46.934Z,388.13
2019-04-23T08:41:06.053Z,382.50
2019-04-23T08:43:00.897Z,382.50
2019-04-23T08:44:15.586Z,382.50
2019-04-23T08:45:05.341Z,382.50
2019-04-23T08:45:46.285Z,382.50
2019-04-23T08:47:06.864Z,388.13
2019-04-23T08:47:52.612Z,393.75
2019-04-23T08:48:57.507Z,405.00
2019-04-23T08:50:55.929Z,405.00
2019-04-23T08:53:00.155Z,405.00
2019-04-23T08:53:57.110Z,399.38
2019-04-23T08:56:05.099Z,393.75
2019-04-23T08:56:59.764Z,393.75
2019-04-23T08:57:45.230Z,388.13
2019-04-23T08:58:48.949Z,382.50
2019-04-23T08:59:47.343Z,371.25
2019-04-23T09:00:51.927Z,360.00
2019-04-23T09:02:07.629Z,365.63
2019-04-23T09:02:55.215Z,382.50
2019-04-23T09:03:47.876Z,399.38
2019-04-23T09:04:55.444Z,405.00
2019-04-23T09:05:52.645Z,410.63
2019-04-23T09:07:00.531Z,399.38
2019-04-23T09:09:10.431Z,399.38
2019-04-23T09:09:52.085Z,399.38
2019-04-23T09:10:56.693Z,399.38
2019-04-23T09:13:00.788Z,393.75
2019-04-23T09:14:52.391Z,399.38
2019-04-23T09:16:51.406Z,393.75
2019-04-23T09:17:57.923Z,388.13
2019-04-23T09:18:45.817Z,393.75
2019-04-23T09:20:05.255Z,399.38
2019-04-23T09:20:41.555Z,405.00
2019-04-23T09:21:50.542Z,410.63
2019-04-23T09:22:46.903Z,416.25
2019-04-23T09:23:59.151Z,421.88
2019-04-23T09:24:48.513Z,433.13
2019-04-23T09:25:49.917Z,438.75
2019-04-23T09:26:56.314Z,444.38
2019-04-23T09:27:48.170Z,450.00
2019-04-23T09:29:51.510Z,455.63
2019-04-23T09:30:51.304Z,455.63
2019-04-23T09:32:07.660Z,461.25
2019-04-23T09:32:47.614Z,472.50
2019-04-23T09:34:55.109Z,472.50
2019-04-23T09:35:46.798Z,455.63
2019-04-23T09:36:51.600Z,450.00
2019-04-23T09:37:48.725Z,450.00
2019-04-23T09:38:46.013Z,444.38
2019-04-23T09:39:49.773Z,455.63
2019-04-23T09:40:56.059Z,461.25
2019-04-23T09:41:37.836Z,466.88
2019-04-23T09:42:55.411Z,472.50
2019-04-23T09:43:48.567Z,455.63
2019-04-23T09:45:48.724Z,438.75
2019-04-23T09:46:49.620Z,438.75
2019-04-23T09:47:51.850Z,461.25
2019-04-23T09:48:54.622Z,466.88
2019-04-23T09:49:48.315Z,489.38
2019-04-23T09:50:48.980Z,495.00
2019-04-23T09:51:45.208Z,495.00
2019-04-23T09:52:57.641Z,472.50
2019-04-23T09:53:41.111Z,461.25
2019-04-23T09:54:49.606Z,455.63
2019-04-23T09:57:50.247Z,450.00
2019-04-23T09:58:42.753Z,455.63
2019-04-23T09:59:43.058Z,466.88
2019-04-23T10:00:42.827Z,483.75
2019-04-23T10:01:40.963Z,495.00
2019-04-23T10:02:35.391Z,500.63
2019-04-23T10:03:25.464Z,500.63
2019-04-23T10:04:32.005Z,500.63
2019-04-23T10:05:29.157Z,511.88
2019-04-23T10:06:22.716Z,506.25
2019-04-23T10:07:27.130Z,506.25
2019-04-23T10:08:23.143Z,500.63
2019-04-23T10:09:16.650Z,489.38
2019-04-23T10:10:16.355Z,495.00
2019-04-23T10:11:15.993Z,511.88
2019-04-23T10:12:14.788Z,517.50
2019-04-23T10:13:15.847Z,523.13
2019-04-23T10:14:14.774Z,517.50
2019-04-23T10:15:22.718Z,483.75
2019-04-23T10:16:17.121Z,466.88
2019-04-23T10:17:14.107Z,461.25
2019-04-23T10:18:14.315Z,466.88
2019-04-23T10:19:15.136Z,461.25
2019-04-23T10:20:13.723Z,455.63
2019-04-23T10:21:15.324Z,461.25
2019-04-23T10:22:13.482Z,438.75
2019-04-23T10:23:14.231Z,444.38
2019-04-23T10:24:14.921Z,427.50
2019-04-23T10:25:13.113Z,427.50
2019-04-23T10:26:14.246Z,466.88
2019-04-23T10:27:12.872Z,466.88
2019-04-23T10:28:14.482Z,489.38
2019-04-23T10:29:13.861Z,495.00
2019-04-23T10:30:14.353Z,472.50
2019-04-23T10:31:12.727Z,472.50
2019-04-23T10:32:13.546Z,472.50
2019-04-23T10:33:13.724Z,472.50
2019-04-23T10:34:12.271Z,472.50
2019-04-23T10:35:24.748Z,483.75
2019-04-23T10:36:15.831Z,478.13
2019-04-23T10:37:11.649Z,466.88
2019-04-23T10:38:14.831Z,466.88
2019-04-23T10:39:17.625Z,450.00
2019-04-23T10:40:17.235Z,438.75
2019-04-23T10:41:12.025Z,421.88
2019-04-23T10:42:11.971Z,438.75
2019-04-23T10:43:11.276Z,421.88
2019-04-23T10:44:11.094Z,399.38
2019-04-23T10:45:25.114Z,405.00
2019-04-23T10:46:35.135Z,433.13
2019-04-23T10:47:38.253Z,421.88
2019-04-23T10:49:51.050Z,444.38
2019-04-23T10:50:46.525Z,461.25
2019-04-23T10:51:51.645Z,489.38
2019-04-23T10:52:36.362Z,500.63
2019-04-23T10:53:37.902Z,523.13
2019-04-23T10:55:52.585Z,579.38
2019-04-23T10:56:41.083Z,590.63
2019-04-23T10:57:31.128Z,579.38
2019-04-23T10:58:35.352Z,573.75
2019-04-23T11:00:37.507Z,523.13
2019-04-23T11:01:45.225Z,495.00
2019-04-23T11:02:51.739Z,495.00
2019-04-23T11:03:51.600Z,472.50
2019-04-23T11:04:51.727Z,455.63
2019-04-23T11:06:41.376Z,433.13
2019-04-23T11:08:38.335Z,416.25
2019-04-23T11:10:37.717Z,388.13
2019-04-23T11:11:34.404Z,410.63
2019-04-23T11:14:43.254Z,506.25
2019-04-23T11:16:49.620Z,607.50
2019-04-23T11:17:43.219Z,601.88
2019-04-23T11:18:46.860Z,669.38
2019-04-23T11:19:44.347Z,686.25
2019-04-23T11:20:36.830Z,691.88
2019-04-23T11:21:34.572Z,697.50
2019-04-23T11:23:34.605Z,675.00
2019-04-23T11:25:35.999Z,646.88
2019-04-23T11:26:34.346Z,618.75
2019-04-23T11:27:39.143Z,613.13
2019-04-23T11:28:33.553Z,590.63
2019-04-23T11:29:34.298Z,528.75
2019-04-23T11:30:45.116Z,495.00
2019-04-23T11:31:44.920Z,472.50
2019-04-23T11:32:47.102Z,506.25
2019-04-23T11:33:50.890Z,495.00
2019-04-23T11:34:56.852Z,540.00
2019-04-23T11:35:39.740Z,562.50
2019-04-23T11:36:53.864Z,607.50
2019-04-23T11:37:42.685Z,641.25
2019-04-23T11:38:49.003Z,686.25
2019-04-23T11:39:39.625Z,613.13
2019-04-23T11:41:51.402Z,630.00
2019-04-23T11:42:39.032Z,596.25
2019-04-23T11:44:39.215Z,568.13
2019-04-23T11:45:41.690Z,573.75
2019-04-23T11:46:45.663Z,601.88
2019-04-23T11:51:05.793Z,523.13
2019-04-23T11:51:46.154Z,585.00
2019-04-23T11:52:51.588Z,613.13
2019-04-23T11:53:35.588Z,562.50
2019-04-23T11:54:31.005Z,590.63
2019-04-23T11:55:39.141Z,607.50
2019-04-23T11:56:53.715Z,618.75
2019-04-23T11:57:41.202Z,573.75
2019-04-23T11:59:36.200Z,607.50
2019-04-23T12:01:00.840Z,680.63
2019-04-23T12:01:42.795Z,613.13
2019-04-23T12:02:35.138Z,669.38
2019-04-23T12:03:28.693Z,545.63
2019-04-23T12:05:32.123Z,573.75
2019-04-23T12:06:36.669Z,568.13
2019-04-23T12:07:32.809Z,579.38
2019-04-23T12:08:38.167Z,590.63
2019-04-23T12:09:43.017Z,607.50
2019-04-23T12:10:44.462Z,568.13
2019-04-23T12:11:54.531Z,568.13
2019-04-23T12:12:31.261Z,624.38
2019-04-23T12:13:37.885Z,748.13
2019-04-23T12:14:37.108Z,759.38
2019-04-23T12:15:32.932Z,686.25
2019-04-23T12:16:27.974Z,686.25
2019-04-23T12:18:35.310Z,607.50
2019-04-23T12:19:52.100Z,517.50
2019-04-23T12:20:33.094Z,483.75
2019-04-23T12:21:27.824Z,506.25
2019-04-23T12:22:29.484Z,511.88
2019-04-23T12:23:40.630Z,495.00
2019-04-23T12:27:33.148Z,416.25
2019-04-23T12:28:29.943Z,365.63
2019-04-23T12:29:33.717Z,354.38
2019-04-23T12:30:34.226Z,433.13
2019-04-23T12:31:34.895Z,472.50
2019-04-23T12:33:42.560Z,388.13
2019-04-23T12:34:41.717Z,343.13
2019-04-23T12:35:22.446Z,405.00
2019-04-23T12:36:33.893Z,483.75
2019-04-23T12:37:33.485Z,455.63
2019-04-23T12:39:30.793Z,596.25
2019-04-23T12:41:28.313Z,624.38
2019-04-23T12:43:23.346Z,500.63
2019-04-23T12:44:34.841Z,545.63
2019-04-23T12:46:29.687Z,517.50
2019-04-23T12:47:37.696Z,483.75
2019-04-23T12:49:50.975Z,421.88
2019-04-23T12:51:38.078Z,421.88
2019-04-23T12:52:26.758Z,371.25
2019-04-23T12:53:33.610Z,365.63
2019-04-23T12:54:37.983Z,393.75
2019-04-23T12:55:27.775Z,466.88
2019-04-23T12:56:34.753Z,528.75
2019-04-23T12:57:30.850Z,517.50
2019-04-23T12:58:26.995Z,556.88
2019-04-23T12:59:23.663Z,573.75
2019-04-23T13:00:27.102Z,528.75
2019-04-23T13:01:22.655Z,534.38
2019-04-23T13:02:32.763Z,556.88
2019-04-23T13:03:34.170Z,551.25
2019-04-23T13:04:24.859Z,663.75
2019-04-23T13:05:28.918Z,770.63
2019-04-23T13:06:20.446Z,793.13
2019-04-23T13:07:26.090Z,765.00
2019-04-23T13:08:38.044Z,714.38
2019-04-23T13:09:39.971Z,658.13
2019-04-23T13:10:20.974Z,399.38
2019-04-23T13:11:34.550Z,388.13
2019-04-23T13:12:33.195Z,421.88
2019-04-23T13:13:37.456Z,506.25
2019-04-23T13:14:26.463Z,506.25
2019-04-23T13:15:22.527Z,551.25
2019-04-23T13:16:33.514Z,568.13
2019-04-23T13:17:32.979Z,607.50
2019-04-23T13:18:27.329Z,551.25
2019-04-23T13:19:32.849Z,528.75
2019-04-23T13:20:23.557Z,534.38
2019-04-23T13:21:40.986Z,551.25
2019-04-23T13:22:23.396Z,675.00
2019-04-23T13:24:18.088Z,635.63
2019-04-23T13:25:23.901Z,635.63
2019-04-23T13:26:08.953Z,669.38
2019-04-23T13:27:29.019Z,736.88
2019-04-23T13:28:23.533Z,781.88
2019-04-23T13:29:27.233Z,821.25
2019-04-23T13:30:24.529Z,939.38
2019-04-23T13:31:17.847Z,725.63
2019-04-23T13:32:20.517Z,652.50
2019-04-23T13:33:31.987Z,843.75
2019-04-23T13:34:23.977Z,990.00
2019-04-23T13:35:38.337Z,945.00
2019-04-23T13:37:20.118Z,697.50
2019-04-23T13:39:18.457Z,691.88
2019-04-23T13:40:24.492Z,849.38
2019-04-23T13:41:20.133Z,720.00
2019-04-23T13:42:22.950Z,838.13
2019-04-23T13:44:17.487Z,708.75
2019-04-23T13:45:33.298Z,495.00
2019-04-23T13:46:33.143Z,568.13
2019-04-23T13:47:30.441Z,534.38
2019-04-23T13:48:16.691Z,1996.88
2019-04-23T13:49:16.377Z,545.63
2019-04-23T13:50:35.579Z,483.75
2019-04-23T13:52:43.046Z,1940.63
2019-04-23T13:53:29.137Z,3206.25
2019-04-23T13:55:09.079Z,534.38
2019-04-23T13:57:46.558Z,3133.13
2019-04-23T13:58:27.359Z,866.25
2019-04-23T14:00:21.190Z,1507.50
2019-04-23T14:02:24.077Z,1524.38
2019-04-23T14:03:26.308Z,1918.13
2019-04-23T14:04:24.072Z,3318.75
2019-04-23T14:05:13.070Z,1074.38
2019-04-23T14:06:24.481Z,1215.00
2019-04-23T14:07:25.125Z,635.63
2019-04-23T14:08:29.141Z,646.88
2019-04-23T14:09:28.143Z,556.88
2019-04-23T14:10:18.240Z,551.25
2019-04-23T14:12:17.616Z,765.00
2019-04-23T14:14:21.948Z,939.38
2019-04-23T14:15:19.779Z,1265.63
2019-04-23T14:16:22.811Z,511.88
2019-04-23T14:17:26.965Z,568.13
2019-04-23T14:18:48.455Z,562.50
2019-04-23T14:19:06.766Z,478.13
2019-04-23T14:20:15.324Z,877.50
2019-04-23T14:21:20.381Z,2525.63
2019-04-23T14:22:31.263Z,427.50
2019-04-23T14:23:10.726Z,388.13
2019-04-23T14:24:16.715Z,331.88
2019-04-23T14:25:10.033Z,360.00
2019-04-23T14:27:14.280Z,393.75
2019-04-23T14:29:04.249Z,281.25
2019-04-23T14:32:17.186Z,292.50
2019-04-23T14:33:17.666Z,331.88
2019-04-23T14:34:12.850Z,376.88
2019-04-23T14:35:18.352Z,416.25
2019-04-23T14:36:17.318Z,528.75
2019-04-23T14:37:12.783Z,534.38
2019-04-23T14:39:10.054Z,646.88
2019-04-23T14:40:15.306Z,3105.00
2019-04-23T14:41:21.284Z,3301.88
2019-04-23T14:42:20.676Z,517.50
2019-04-23T14:43:14.999Z,410.63
2019-04-23T14:44:16.024Z,455.63
2019-04-23T14:45:20.953Z,461.25
2019-04-23T14:47:16.835Z,444.38
2019-04-23T14:51:18.290Z,382.50
2019-04-23T14:52:14.556Z,320.63
2019-04-23T14:54:04.807Z,410.63
2019-04-23T14:55:42.601Z,478.13
2019-04-23T14:56:13.256Z,500.63
2019-04-23T14:58:17.501Z,601.88
2019-04-23T14:59:07.115Z,466.88
2019-04-23T15:00:07.377Z,337.50
2019-04-23T15:02:13.205Z,208.13
2019-04-23T15:03:26.762Z,174.38
2019-04-23T15:04:05.656Z,146.25
2019-04-23T15:05:15.330Z,135.00
2019-04-23T15:08:06.248Z,163.13
2019-04-23T15:09:14.374Z,174.38
2019-04-23T15:10:24.566Z,185.63
2019-04-23T15:11:24.710Z,225.00
2019-04-23T15:12:16.077Z,275.63
2019-04-23T15:13:12.619Z,292.50
2019-04-23T15:14:11.931Z,298.13
2019-04-23T15:16:20.503Z,343.13
2019-04-23T15:17:05.779Z,371.25
2019-04-23T15:18:13.750Z,354.38
2019-04-23T15:19:26.012Z,461.25
2019-04-23T15:20:03.473Z,309.38
2019-04-23T15:21:31.437Z,236.25
2019-04-23T15:22:07.774Z,208.13
2019-04-23T15:25:21.592Z,168.75
2019-04-23T15:27:04.066Z,185.63
2019-04-23T15:28:44.860Z,191.25